Time;durP1;ratioP1;P1;durP2;ratioP2;P2;SDS_P1;SDS_P2;PMS_P1;PMS_P2;Temp;Humidity;BMP_temperature;BMP_pressure;BME280_temperature;BME280_humidity;BME280_pressure;Samples;Min_cycle;Max_cycle;Signal;HPM_P1;HPM_P2
2023/08/15 00:01:27;;;;;;;7.63;2.15;;;;;;;;;;5013601;28;20033;-72
2023/08/15 00:03:53;;;;;;;6.70;2.25;;;;;;;;;;5017871;28;20056;-72
2023/08/15 00:06:20;;;;;;;6.60;2.20;;;;;;;;;;4993932;28;20572;-72
2023/08/15 00:08:53;;;;;;;6.82;1.92;;;;;;;;;;5018472;28;20116;-72
2023/08/15 00:11:19;;;;;;;7.03;1.88;;;;;;;;;;4997352;28;20262;-74
2023/08/15 00:13:45;;;;;;;7.50;2.20;;;;;;;;;;5018631;28;20030;-72
2023/08/15 00:16:12;;;;;;;8.77;2.05;;;;;;;;;;4994068;28;20570;-72
2023/08/15 00:18:38;;;;;;;7.32;2.08;;;;;;;;;;5019041;28;20564;-72
2023/08/15 00:21:04;;;;;;;8.73;2.13;;;;;;;;;;5011450;28;20554;-72
2023/08/15 00:23:30;;;;;;;6.38;1.73;;;;;;;;;;5017609;28;20487;-72
2023/08/15 00:25:56;;;;;;;8.15;2.00;;;;;;;;;;5017669;28;20627;-73
2023/08/15 00:28:22;;;;;;;6.30;1.90;;;;;;;;;;5016328;28;20033;-72
2023/08/15 00:30:48;;;;;;;8.10;1.92;;;;;;;;;;5017244;28;20041;-73
2023/08/15 00:33:15;;;;;;;6.32;2.08;;;;;;;;;;5016471;28;20261;-71
2023/08/15 00:35:42;;;;;;;5.95;1.95;;;;;;;;;;5023300;28;20128;-72
2023/08/15 00:38:08;;;;;;;6.82;2.17;;;;;;;;;;5017197;28;20464;-72
2023/08/15 00:40:34;;;;;;;9.45;2.63;;;;;;;;;;5021388;28;20020;-71
2023/08/15 00:43:00;;;;;;;7.55;2.22;;;;;;;;;;5011357;28;20140;-72
2023/08/15 00:45:27;;;;;;;7.85;2.60;;;;;;;;;;5003661;28;20025;-71
2023/08/15 00:47:53;;;;;;;7.78;2.20;;;;;;;;;;5003688;28;20053;-71
2023/08/15 00:50:19;;;;;;;7.90;1.98;;;;;;;;;;5015954;28;20163;-72
2023/08/15 00:52:45;;;;;;;7.22;2.05;;;;;;;;;;5021874;28;20046;-71
2023/08/15 00:55:12;;;;;;;7.97;2.22;;;;;;;;;;5019131;28;20029;-71
2023/08/15 00:57:38;;;;;;;7.28;2.30;;;;;;;;;;5022420;28;20064;-71
2023/08/15 01:00:05;;;;;;;5.10;1.90;;;;;;;;;;5016767;28;20272;-71
2023/08/15 01:02:31;;;;;;;6.00;2.00;;;;;;;;;;5020127;28;20124;-71
2023/08/15 01:04:57;;;;;;;8.30;1.92;;;;;;;;;;5018016;28;20033;-71
2023/08/15 01:07:23;;;;;;;7.13;1.90;;;;;;;;;;5013765;28;20191;-71
2023/08/15 01:09:49;;;;;;;5.50;1.80;;;;;;;;;;5019338;28;20052;-71
2023/08/15 01:12:31;;;;;;;8.45;2.00;;;;;;;;;;5017652;28;20463;-71
2023/08/15 01:15:04;;;;;;;5.03;1.60;;;;;;;;;;5005918;28;20512;-70
2023/08/15 01:18:05;;;;;;;7.20;1.90;;;;;;;;;;5015482;28;20467;-70
2023/08/15 01:20:33;;;;;;;5.50;1.80;;;;;;;;;;4919757;28;20456;-71
2023/08/15 01:23:01;;;;;;;5.93;1.67;;;;;;;;;;4919042;28;20223;-70
2023/08/15 01:25:27;;;;;;;6.82;1.83;;;;;;;;;;4923731;28;20058;-72
2023/08/15 01:27:53;;;;;;;5.95;1.80;;;;;;;;;;4922263;28;20051;-70
2023/08/15 01:30:22;;;;;;;6.43;1.73;;;;;;;;;;4904486;28;20389;-73
2023/08/15 01:33:08;;;;;;;5.45;1.60;;;;;;;;;;4925758;28;20054;-69
2023/08/15 01:35:34;;;;;;;;;;;;;;;;;;4921679;28;20133;-70
2023/08/15 01:38:08;;;;;;;6.70;1.73;;;;;;;;;;4916080;28;19918;-71
2023/08/15 01:40:36;;;;;;;5.18;1.58;;;;;;;;;;4921330;28;20046;-71
2023/08/15 01:43:03;;;;;;;6.22;1.48;;;;;;;;;;4917709;28;20114;-71
2023/08/15 01:45:30;;;;;;;4.72;1.48;;;;;;;;;;4908437;28;20655;-70
2023/08/15 01:47:56;;;;;;;6.88;1.35;;;;;;;;;;4919203;28;20519;-70
2023/08/15 01:50:22;;;;;;;5.70;1.48;;;;;;;;;;4916775;28;20419;-70
2023/08/15 01:52:48;;;;;;;5.97;1.65;;;;;;;;;;4908553;28;20234;-70
2023/08/15 01:55:15;;;;;;;4.55;1.20;;;;;;;;;;4980847;28;20090;-70
2023/08/15 01:57:41;;;;;;;4.97;1.60;;;;;;;;;;5003739;28;20325;-70
2023/08/15 02:00:07;;;;;;;6.40;1.60;;;;;;;;;;5016229;28;20379;-70
2023/08/15 02:02:33;;;;;;;5.30;1.50;;;;;;;;;;5017898;28;20029;-71
2023/08/15 02:05:02;;;;;;;6.80;1.52;;;;;;;;;;4996337;28;20383;-71
2023/08/15 02:07:28;;;;;;;5.80;1.58;;;;;;;;;;5018371;28;20033;-71
2023/08/15 02:09:54;;;;;;;6.88;1.70;;;;;;;;;;5017076;28;20543;-71
2023/08/15 02:12:20;;;;;;;8.20;1.75;;;;;;;;;;5011052;28;20124;-71
2023/08/15 02:14:46;;;;;;;7.28;1.77;;;;;;;;;;5018665;28;20131;-70
2023/08/15 02:17:13;;;;;;;8.02;1.80;;;;;;;;;;5015202;28;20064;-71
2023/08/15 02:19:39;;;;;;;8.13;1.95;;;;;;;;;;5018358;28;20025;-71
2023/08/15 02:22:05;;;;;;;7.47;2.20;;;;;;;;;;4997733;28;20224;-70
2023/08/15 02:24:31;;;;;;;4.65;1.30;;;;;;;;;;4998574;28;20116;-70
2023/08/15 02:26:57;;;;;;;4.65;1.63;;;;;;;;;;5016347;28;20109;-71
2023/08/15 02:29:24;;;;;;;4.57;1.40;;;;;;;;;;5012573;28;20032;-72
2023/08/15 02:31:50;;;;;;;5.88;1.52;;;;;;;;;;5017849;28;20037;-70
2023/08/15 02:34:17;;;;;;;5.03;1.40;;;;;;;;;;5014684;28;20026;-71
2023/08/15 02:36:46;;;;;;;5.05;1.60;;;;;;;;;;5018687;28;20257;-71
2023/08/15 02:39:13;;;;;;;5.55;1.52;;;;;;;;;;5013774;28;20047;-73
2023/08/15 02:41:39;;;;;;;6.72;1.75;;;;;;;;;;5015559;28;20099;-71
2023/08/15 02:44:06;;;;;;;5.60;1.63;;;;;;;;;;5017788;28;20379;-69
2023/08/15 02:46:32;;;;;;;7.13;1.60;;;;;;;;;;5016060;28;20048;-73
2023/08/15 02:48:59;;;;;;;7.65;1.77;;;;;;;;;;5014362;28;20033;-72
2023/08/15 02:51:25;;;;;;;4.72;1.65;;;;;;;;;;5019658;28;20033;-73
2023/08/15 02:53:51;;;;;;;5.32;1.70;;;;;;;;;;5014480;28;20068;-72
2023/08/15 02:56:18;;;;;;;5.55;1.70;;;;;;;;;;5013170;28;20358;-72
2023/08/15 02:58:44;;;;;;;6.20;1.67;;;;;;;;;;5014562;28;20339;-72
2023/08/15 03:01:10;;;;;;;6.60;1.80;;;;;;;;;;5003074;28;20029;-72
2023/08/15 03:03:36;;;;;;;7.32;1.77;;;;;;;;;;4997356;28;20241;-73
2023/08/15 03:06:03;;;;;;;6.05;1.90;;;;;;;;;;5012530;28;20037;-72
2023/08/15 03:08:32;;;;;;;5.75;1.60;;;;;;;;;;5015660;28;20285;-72
2023/08/15 03:10:59;;;;;;;4.75;1.60;;;;;;;;;;5012897;28;20991;-72
2023/08/15 03:13:25;;;;;;;7.78;1.80;;;;;;;;;;4995572;28;20110;-72
2023/08/15 03:15:52;;;;;;;5.65;1.50;;;;;;;;;;5014227;28;20032;-72
2023/08/15 03:18:19;;;;;;;5.85;1.58;;;;;;;;;;5013006;28;23545;-74
2023/08/15 03:20:45;;;;;;;7.03;1.85;;;;;;;;;;5014468;28;20435;-71
2023/08/15 03:23:11;;;;;;;6.45;1.63;;;;;;;;;;4999033;28;20526;-71
2023/08/15 03:25:37;;;;;;;4.93;1.65;;;;;;;;;;5017182;28;20033;-71
2023/08/15 03:28:03;;;;;;;7.03;1.85;;;;;;;;;;5012487;28;20465;-70
2023/08/15 03:30:29;;;;;;;6.32;1.73;;;;;;;;;;5015510;28;20271;-70
2023/08/15 03:32:55;;;;;;;4.88;1.52;;;;;;;;;;5015871;28;20677;-72
2023/08/15 03:35:22;;;;;;;5.57;1.75;;;;;;;;;;5014110;28;20052;-71
2023/08/15 03:37:48;;;;;;;7.18;1.80;;;;;;;;;;5016434;28;20357;-72
2023/08/15 03:40:14;;;;;;;7.72;2.10;;;;;;;;;;5013845;28;20444;-72
2023/08/15 03:42:40;;;;;;;6.18;1.80;;;;;;;;;;5016966;28;20288;-72
2023/08/15 03:45:06;;;;;;;6.47;1.90;;;;;;;;;;5009751;28;20029;-70
2023/08/15 03:47:32;;;;;;;5.47;1.80;;;;;;;;;;5016159;28;20121;-71
2023/08/15 03:49:59;;;;;;;7.53;1.88;;;;;;;;;;4995681;28;20037;-70
2023/08/15 03:52:25;;;;;;;6.35;1.90;;;;;;;;;;5014935;28;20107;-73
2023/08/15 03:54:51;;;;;;;6.50;1.52;;;;;;;;;;5013168;28;20102;-72
2023/08/15 03:57:17;;;;;;;5.25;1.70;;;;;;;;;;5011651;28;20109;-72
2023/08/15 03:59:44;;;;;;;6.57;1.70;;;;;;;;;;5009901;28;20040;-72
2023/08/15 04:02:10;;;;;;;5.60;1.70;;;;;;;;;;4992408;28;20025;-73
2023/08/15 04:04:36;;;;;;;7.32;1.80;;;;;;;;;;5016090;28;20063;-70
2023/08/15 04:07:03;;;;;;;5.97;1.70;;;;;;;;;;5012195;28;20029;-72
2023/08/15 04:09:29;;;;;;;6.78;1.80;;;;;;;;;;5014513;28;20664;-70
2023/08/15 04:11:55;;;;;;;8.43;2.13;;;;;;;;;;5012857;28;20551;-70
2023/08/15 04:14:22;;;;;;;6.22;2.10;;;;;;;;;;5011067;28;20033;-71
2023/08/15 04:16:48;;;;;;;6.28;1.90;;;;;;;;;;4994723;28;20520;-71
2023/08/15 04:19:14;;;;;;;6.93;1.70;;;;;;;;;;5010659;28;20374;-71
2023/08/15 04:21:40;;;;;;;7.68;1.88;;;;;;;;;;5013586;28;20021;-71
2023/08/15 04:24:06;;;;;;;8.82;2.10;;;;;;;;;;5015066;28;20032;-71
2023/08/15 04:26:32;;;;;;;6.32;1.77;;;;;;;;;;5011523;28;20034;-71
2023/08/15 04:28:59;;;;;;;5.13;1.80;;;;;;;;;;5012715;28;20037;-71
2023/08/15 04:31:25;;;;;;;5.18;1.60;;;;;;;;;;5009839;28;20033;-71
2023/08/15 04:33:51;;;;;;;5.47;1.80;;;;;;;;;;5014020;28;20094;-70
2023/08/15 04:36:17;;;;;;;7.38;1.83;;;;;;;;;;5012868;28;20052;-70
2023/08/15 04:38:44;;;;;;;6.18;2.00;;;;;;;;;;5013459;28;20111;-71
2023/08/15 04:41:10;;;;;;;5.90;1.90;;;;;;;;;;5011293;28;20052;-70
2023/08/15 04:43:36;;;;;;;8.73;2.05;;;;;;;;;;5009636;28;20029;-72
2023/08/15 04:46:02;;;;;;;7.88;2.20;;;;;;;;;;5012274;28;20064;-71
2023/08/15 04:48:28;;;;;;;7.47;2.17;;;;;;;;;;5016794;28;20557;-71
2023/08/15 04:50:54;;;;;;;8.20;2.20;;;;;;;;;;5014411;28;20257;-71
2023/08/15 04:53:20;;;;;;;7.70;2.30;;;;;;;;;;5010786;28;20436;-70
2023/08/15 04:55:46;;;;;;;7.30;2.33;;;;;;;;;;5011777;28;20013;-72
2023/08/15 04:58:13;;;;;;;9.27;2.25;;;;;;;;;;5008598;28;20033;-72
2023/08/15 05:00:39;;;;;;;6.72;1.90;;;;;;;;;;4997212;28;20945;-72
2023/08/15 05:03:05;;;;;;;8.20;1.98;;;;;;;;;;5010659;28;20032;-70
2023/08/15 05:05:31;;;;;;;9.43;2.35;;;;;;;;;;5012949;28;20456;-70
2023/08/15 05:07:57;;;;;;;6.53;1.85;;;;;;;;;;5017124;28;20033;-71
2023/08/15 05:10:23;;;;;;;6.18;1.90;;;;;;;;;;5015411;28;20029;-71
2023/08/15 05:12:50;;;;;;;8.73;2.10;;;;;;;;;;5017609;28;20107;-71
2023/08/15 05:15:16;;;;;;;5.80;1.90;;;;;;;;;;5015558;28;20536;-70
2023/08/15 05:17:43;;;;;;;6.75;2.00;;;;;;;;;;4998877;28;20064;-73
2023/08/15 05:20:10;;;;;;;7.13;2.10;;;;;;;;;;5015665;28;20079;-71
2023/08/15 05:22:36;;;;;;;8.02;2.33;;;;;;;;;;5018043;28;20021;-71
2023/08/15 05:25:02;;;;;;;6.97;1.92;;;;;;;;;;5014957;28;20030;-71
2023/08/15 05:27:29;;;;;;;5.70;1.60;;;;;;;;;;5019576;28;20446;-70
2023/08/15 05:29:55;;;;;;;7.65;1.85;;;;;;;;;;5018130;28;20028;-73
2023/08/15 05:32:21;;;;;;;6.05;1.60;;;;;;;;;;5016575;28;20033;-72
2023/08/15 05:34:47;;;;;;;5.82;1.77;;;;;;;;;;5020101;28;20041;-70
2023/08/15 05:37:13;;;;;;;5.75;1.65;;;;;;;;;;5019100;28;20305;-71
2023/08/15 05:39:39;;;;;;;5.05;1.40;;;;;;;;;;5019440;28;20106;-70
2023/08/15 05:42:06;;;;;;;5.10;1.60;;;;;;;;;;5012934;28;20360;-72
2023/08/15 05:44:32;;;;;;;9.57;2.47;;;;;;;;;;5019376;28;20041;-70
2023/08/15 05:46:58;;;;;;;6.65;1.80;;;;;;;;;;5020701;28;20073;-71
2023/08/15 05:49:24;;;;;;;7.05;2.00;;;;;;;;;;5018062;28;20219;-70
2023/08/15 05:51:52;;;;;;;8.35;2.22;;;;;;;;;;5017547;28;20045;-70
2023/08/15 05:54:18;;;;;;;8.30;2.40;;;;;;;;;;5016317;28;21623;-70
2023/08/15 05:56:44;;;;;;;6.95;2.10;;;;;;;;;;5021132;28;20025;-72
2023/08/15 05:59:11;;;;;;;7.10;2.13;;;;;;;;;;5012889;28;20848;-71
2023/08/15 06:01:38;;;;;;;8.48;2.35;;;;;;;;;;5018047;28;20025;-71
2023/08/15 06:04:05;;;;;;;6.40;1.80;;;;;;;;;;5015450;28;20447;-71
2023/08/15 06:06:31;;;;;;;9.23;2.10;;;;;;;;;;5018396;28;20566;-71
2023/08/15 06:08:57;;;;;;;4.72;1.65;;;;;;;;;;5018961;28;20545;-71
2023/08/15 06:11:24;;;;;;;5.75;1.80;;;;;;;;;;5003683;28;20637;-70
2023/08/15 06:13:50;;;;;;;7.70;2.08;;;;;;;;;;5019148;28;20025;-70
2023/08/15 06:16:16;;;;;;;6.88;1.88;;;;;;;;;;5016974;28;20078;-71
2023/08/15 06:18:42;;;;;;;7.15;1.92;;;;;;;;;;5017261;28;20029;-73
2023/08/15 06:21:08;;;;;;;6.72;2.13;;;;;;;;;;5015991;28;20557;-70
2023/08/15 06:23:35;;;;;;;5.72;2.05;;;;;;;;;;4996791;28;20439;-73
2023/08/15 06:26:02;;;;;;;6.78;2.28;;;;;;;;;;5002267;28;20546;-70
2023/08/15 06:28:29;;;;;;;7.95;2.30;;;;;;;;;;5019708;28;20049;-71
2023/08/15 06:30:55;;;;;;;7.60;2.20;;;;;;;;;;4998479;28;20029;-71
2023/08/15 06:33:21;;;;;;;7.00;2.20;;;;;;;;;;5017781;28;20064;-71
2023/08/15 06:35:47;;;;;;;5.10;1.80;;;;;;;;;;4999784;28;20064;-71
2023/08/15 06:38:14;;;;;;;7.00;2.00;;;;;;;;;;5013419;28;20038;-71
2023/08/15 06:40:40;;;;;;;7.50;2.03;;;;;;;;;;5018048;28;20045;-71
2023/08/15 06:43:06;;;;;;;5.15;1.70;;;;;;;;;;5012952;28;20561;-71
2023/08/15 06:45:33;;;;;;;6.13;1.90;;;;;;;;;;5016504;28;20024;-71
2023/08/15 06:47:59;;;;;;;8.40;2.00;;;;;;;;;;4998312;28;20467;-70
2023/08/15 06:50:25;;;;;;;8.18;2.30;;;;;;;;;;4984178;28;20037;-71
2023/08/15 06:52:51;;;;;;;5.32;1.60;;;;;;;;;;5018814;28;20095;-71
2023/08/15 06:55:18;;;;;;;4.32;1.40;;;;;;;;;;5016818;28;20131;-71
2023/08/15 06:57:44;;;;;;;5.43;1.42;;;;;;;;;;5016637;28;20044;-70
2023/08/15 07:00:11;;;;;;;5.55;1.80;;;;;;;;;;5016329;28;20033;-70
2023/08/15 07:02:38;;;;;;;7.70;1.95;;;;;;;;;;5020232;28;20021;-72
2023/08/15 07:05:04;;;;;;;8.40;2.15;;;;;;;;;;5012164;28;20072;-71
2023/08/15 07:07:30;;;;;;;7.50;2.22;;;;;;;;;;5012138;28;20103;-72
2023/08/15 07:09:57;;;;;;;7.97;2.10;;;;;;;;;;5014343;28;20064;-71
2023/08/15 07:12:23;;;;;;;6.78;1.90;;;;;;;;;;5012846;28;20029;-72
2023/08/15 07:14:50;;;;;;;6.07;1.80;;;;;;;;;;5017904;28;20083;-70
2023/08/15 07:17:16;;;;;;;7.88;1.98;;;;;;;;;;5003534;28;20033;-71
2023/08/15 07:19:42;;;;;;;7.40;2.00;;;;;;;;;;4991661;28;20438;-71
2023/08/15 07:22:08;;;;;;;8.23;2.08;;;;;;;;;;4989157;28;20124;-71
2023/08/15 07:24:34;;;;;;;7.93;2.05;;;;;;;;;;4991068;28;20585;-71
2023/08/15 07:27:01;;;;;;;7.10;2.40;;;;;;;;;;4989326;28;20055;-71
2023/08/15 07:29:27;;;;;;;8.50;1.92;;;;;;;;;;4989980;28;20033;-71
2023/08/15 07:31:53;;;;;;;7.70;2.00;;;;;;;;;;4995991;28;20135;-71
2023/08/15 07:34:19;;;;;;;8.23;2.25;;;;;;;;;;5006679;28;20392;-71
2023/08/15 07:36:46;;;;;;;7.25;2.05;;;;;;;;;;4989155;28;20570;-72
2023/08/15 07:39:12;;;;;;;9.85;2.28;;;;;;;;;;5006615;28;20130;-71
2023/08/15 07:41:38;;;;;;;7.18;2.03;;;;;;;;;;5009326;28;20078;-72
2023/08/15 07:44:04;;;;;;;6.28;2.08;;;;;;;;;;4989320;28;20045;-71
2023/08/15 07:46:30;;;;;;;6.35;2.00;;;;;;;;;;4993547;28;20554;-71
2023/08/15 07:48:57;;;;;;;6.75;2.13;;;;;;;;;;5010645;28;20021;-72
2023/08/15 07:51:23;;;;;;;7.95;2.17;;;;;;;;;;5002871;28;20392;-71
2023/08/15 07:53:49;;;;;;;5.78;2.03;;;;;;;;;;4993880;28;20025;-72
2023/08/15 07:56:16;;;;;;;5.70;1.98;;;;;;;;;;4992707;28;20371;-72
2023/08/15 07:58:42;;;;;;;9.30;2.30;;;;;;;;;;5006333;28;20025;-71
2023/08/15 08:01:08;;;;;;;7.47;2.08;;;;;;;;;;5011988;28;20025;-71
2023/08/15 08:03:38;;;;;;;7.47;2.20;;;;;;;;;;5011407;28;20029;-71
2023/08/15 08:06:05;;;;;;;8.52;2.80;;;;;;;;;;5005343;28;20036;-71
2023/08/15 08:08:31;;;;;;;6.78;2.10;;;;;;;;;;4992281;28;20778;-70
2023/08/15 08:10:57;;;;;;;12.10;2.58;;;;;;;;;;5009208;28;20020;-73
2023/08/15 08:13:23;;;;;;;7.30;1.98;;;;;;;;;;5008230;28;20561;-70
2023/08/15 08:15:49;;;;;;;8.95;2.08;;;;;;;;;;5009833;28;20122;-71
2023/08/15 08:18:15;;;;;;;8.20;1.95;;;;;;;;;;5004069;28;20516;-71
2023/08/15 08:20:42;;;;;;;8.35;2.33;;;;;;;;;;5016754;28;20032;-72
2023/08/15 08:23:08;;;;;;;11.35;2.20;;;;;;;;;;5012190;28;20029;-71
2023/08/15 08:25:34;;;;;;;10.00;2.45;;;;;;;;;;5016390;28;20041;-71
2023/08/15 08:28:00;;;;;;;6.75;1.98;;;;;;;;;;5014443;28;20643;-71
2023/08/15 08:30:26;;;;;;;10.73;2.00;;;;;;;;;;5019483;28;20515;-71
2023/08/15 08:32:53;;;;;;;5.13;1.80;;;;;;;;;;5022216;28;21191;-72
2023/08/15 08:35:19;;;;;;;7.63;2.22;;;;;;;;;;5017355;28;23720;-71
2023/08/15 08:37:47;;;;;;;7.25;2.25;;;;;;;;;;5018974;28;20033;-71
2023/08/15 08:40:13;;;;;;;8.48;2.58;;;;;;;;;;5017728;28;20040;-71
2023/08/15 08:42:40;;;;;;;6.40;2.13;;;;;;;;;;5006493;28;20025;-71
2023/08/15 08:45:08;;;;;;;6.60;1.90;;;;;;;;;;5019662;28;20061;-72
2023/08/15 08:47:35;;;;;;;6.72;1.98;;;;;;;;;;5020094;28;20148;-71
2023/08/15 08:50:01;;;;;;;7.55;2.20;;;;;;;;;;5017853;28;20559;-71
2023/08/15 08:52:28;;;;;;;8.43;2.15;;;;;;;;;;5023024;28;20558;-71
2023/08/15 08:54:54;;;;;;;8.65;3.03;;;;;;;;;;5024077;28;20217;-74
2023/08/15 08:57:21;;;;;;;6.30;1.90;;;;;;;;;;5023120;28;20042;-71
2023/08/15 08:59:47;;;;;;;7.40;1.98;;;;;;;;;;5023036;28;20376;-71
2023/08/15 09:02:14;;;;;;;7.45;2.25;;;;;;;;;;5022129;28;20024;-72
2023/08/15 09:04:41;;;;;;;8.63;2.35;;;;;;;;;;5025259;28;20535;-71
2023/08/15 09:07:07;;;;;;;6.72;2.10;;;;;;;;;;5018566;28;20406;-72
2023/08/15 09:09:34;;;;;;;8.07;2.13;;;;;;;;;;5023997;28;20041;-71
2023/08/15 09:12:00;;;;;;;8.45;2.33;;;;;;;;;;5005987;28;20041;-71
2023/08/15 09:14:26;;;;;;;8.70;2.17;;;;;;;;;;5025886;28;20128;-71
2023/08/15 09:16:52;;;;;;;7.88;2.25;;;;;;;;;;5021774;28;20364;-71
2023/08/15 09:19:18;;;;;;;6.75;1.90;;;;;;;;;;5022765;28;20036;-71
2023/08/15 09:21:45;;;;;;;8.20;2.22;;;;;;;;;;5021989;28;20515;-71
2023/08/15 09:24:11;;;;;;;7.30;2.28;;;;;;;;;;5018991;28;20562;-71
2023/08/15 09:26:38;;;;;;;8.18;2.45;;;;;;;;;;5021350;28;20661;-71
2023/08/15 09:29:05;;;;;;;8.88;2.30;;;;;;;;;;5021227;28;20120;-72
2023/08/15 09:31:31;;;;;;;6.93;2.00;;;;;;;;;;5006702;28;20025;-71
2023/08/15 09:33:57;;;;;;;7.30;2.15;;;;;;;;;;5008463;28;20049;-72
2023/08/15 09:36:24;;;;;;;8.02;1.90;;;;;;;;;;5018153;28;20057;-71
2023/08/15 09:38:58;;;;;;;7.60;2.17;;;;;;;;;;5025986;28;20380;-71
2023/08/15 09:41:25;;;;;;;9.93;2.53;;;;;;;;;;5021916;28;20027;-71
2023/08/15 09:43:52;;;;;;;8.40;2.28;;;;;;;;;;5004333;28;20038;-71
2023/08/15 09:46:18;;;;;;;7.85;2.30;;;;;;;;;;5019883;28;20021;-71
2023/08/15 09:48:48;;;;;;;8.35;2.75;;;;;;;;;;5006632;28;20036;-73
2023/08/15 09:51:18;;;;;;;5.75;1.83;;;;;;;;;;5020419;28;20279;-72
2023/08/15 09:53:46;;;;;;;9.98;1.95;;;;;;;;;;5020444;28;20215;-72
2023/08/15 09:56:13;;;;;;;6.63;2.08;;;;;;;;;;5020740;28;20268;-71
2023/08/15 09:58:39;;;;;;;5.97;2.05;;;;;;;;;;5003142;28;20391;-72
2023/08/15 10:01:08;;;;;;;5.90;2.28;;;;;;;;;;5018116;28;20025;-72
2023/08/15 10:03:36;;;;;;;5.97;1.95;;;;;;;;;;5023047;28;20120;-71
2023/08/15 10:06:03;;;;;;;5.78;1.73;;;;;;;;;;5001367;28;20040;-71
2023/08/15 10:08:29;;;;;;;7.00;1.90;;;;;;;;;;5002447;28;20479;-72
2023/08/15 10:10:57;;;;;;;6.72;2.03;;;;;;;;;;5020317;28;20029;-72
2023/08/15 10:13:26;;;;;;;6.70;1.75;;;;;;;;;;5017368;28;20634;-71
2023/08/15 10:15:53;;;;;;;5.97;1.73;;;;;;;;;;5020833;28;20037;-72
2023/08/15 10:18:19;;;;;;;5.22;1.50;;;;;;;;;;5020007;28;21687;-72
2023/08/15 10:20:56;;;;;;;6.63;1.95;;;;;;;;;;5007011;28;20414;-71
2023/08/15 10:23:25;;;;;;;6.85;1.85;;;;;;;;;;5019290;28;20032;-72
2023/08/15 10:25:52;;;;;;;6.57;1.83;;;;;;;;;;5023390;28;20029;-71
2023/08/15 10:28:19;;;;;;;5.05;1.60;;;;;;;;;;5003744;28;20569;-72
2023/08/15 10:30:46;;;;;;;7.03;2.03;;;;;;;;;;5023518;28;20025;-72
2023/08/15 10:33:12;;;;;;;7.55;1.80;;;;;;;;;;5017724;28;20453;-71
2023/08/15 10:35:43;;;;;;;7.85;2.30;;;;;;;;;;5006500;28;20055;-71
2023/08/15 10:38:16;;;;;;;6.60;1.70;;;;;;;;;;5021367;28;20033;-71
2023/08/15 10:40:43;;;;;;;5.80;1.63;;;;;;;;;;5026502;28;20578;-71
2023/08/15 10:43:11;;;;;;;7.15;1.98;;;;;;;;;;5017635;28;20394;-71
2023/08/15 10:45:37;;;;;;;5.65;1.70;;;;;;;;;;5020538;28;20511;-72
2023/08/15 10:48:04;;;;;;;7.00;1.73;;;;;;;;;;5020024;28;20079;-71
2023/08/15 10:50:30;;;;;;;8.70;1.90;;;;;;;;;;5025310;28;20037;-71
2023/08/15 10:53:01;;;;;;;7.03;1.92;;;;;;;;;;5022964;28;20045;-71
2023/08/15 10:55:27;;;;;;;6.75;1.70;;;;;;;;;;5022872;28;20029;-72
2023/08/15 10:57:55;;;;;;;8.48;1.90;;;;;;;;;;5024108;28;20037;-71
2023/08/15 11:00:22;;;;;;;8.10;1.90;;;;;;;;;;5020705;28;20031;-71
2023/08/15 11:02:49;;;;;;;5.53;1.70;;;;;;;;;;5016374;28;20358;-73
2023/08/15 11:05:15;;;;;;;5.43;1.50;;;;;;;;;;5011830;28;20033;-71
2023/08/15 11:07:41;;;;;;;6.45;1.65;;;;;;;;;;4976573;28;20033;-71
2023/08/15 11:10:08;;;;;;;6.65;1.58;;;;;;;;;;4994118;28;20040;-71
2023/08/15 11:12:35;;;;;;;4.80;1.50;;;;;;;;;;5014596;28;20060;-72
2023/08/15 11:15:02;;;;;;;8.77;1.90;;;;;;;;;;5010005;28;20032;-72
2023/08/15 11:17:28;;;;;;;5.88;1.52;;;;;;;;;;5008421;28;20051;-72
2023/08/15 11:19:54;;;;;;;6.75;1.70;;;;;;;;;;5008835;28;20052;-71
2023/08/15 11:22:20;;;;;;;5.80;1.60;;;;;;;;;;5014384;28;20446;-71
2023/08/15 11:24:53;;;;;;;6.25;1.70;;;;;;;;;;5016843;28;20234;-72
2023/08/15 11:27:19;;;;;;;5.97;1.80;;;;;;;;;;5009814;28;25399;-71
2023/08/15 11:29:55;;;;;;;5.88;1.50;;;;;;;;;;5014470;28;20112;-71
2023/08/15 11:32:23;;;;;;;5.18;1.75;;;;;;;;;;5009305;28;20120;-71
2023/08/15 11:34:50;;;;;;;5.82;2.00;;;;;;;;;;5014969;28;20478;-72
2023/08/15 11:37:16;;;;;;;6.38;2.38;;;;;;;;;;5013161;28;20049;-70
2023/08/15 11:39:43;;;;;;;6.25;2.15;;;;;;;;;;5014706;28;20104;-69
2023/08/15 11:42:09;;;;;;;6.50;2.55;;;;;;;;;;4991913;28;20028;-69
2023/08/15 11:44:35;;;;;;;5.88;1.90;;;;;;;;;;5012812;28;20036;-69
2023/08/15 11:47:02;;;;;;;6.20;1.58;;;;;;;;;;5007413;28;20573;-69
2023/08/15 11:49:31;;;;;;;6.88;1.70;;;;;;;;;;5012000;28;20320;-69
2023/08/15 11:52:04;;;;;;;7.05;1.70;;;;;;;;;;5007904;28;20451;-69
2023/08/15 11:54:30;;;;;;;6.57;1.88;;;;;;;;;;5012646;28;20590;-68
2023/08/15 11:56:56;;;;;;;6.57;1.70;;;;;;;;;;4991919;28;20025;-67
2023/08/15 11:59:25;;;;;;;5.00;1.38;;;;;;;;;;5009134;28;20295;-69
2023/08/15 12:01:51;;;;;;;5.55;1.60;;;;;;;;;;5008002;28;21104;-68
2023/08/15 12:04:18;;;;;;;6.32;1.60;;;;;;;;;;5008416;28;20037;-69
2023/08/15 12:06:44;;;;;;;4.78;1.30;;;;;;;;;;5010135;28;21930;-69
2023/08/15 12:09:11;;;;;;;7.03;1.70;;;;;;;;;;5005870;28;20033;-69
2023/08/15 12:11:38;;;;;;;4.70;1.30;;;;;;;;;;5006762;28;20139;-69
2023/08/15 12:14:04;;;;;;;5.85;1.50;;;;;;;;;;5007894;28;20506;-69
2023/08/15 12:16:30;;;;;;;5.70;1.60;;;;;;;;;;5009603;28;20321;-70
2023/08/15 12:18:57;;;;;;;4.20;1.42;;;;;;;;;;5011046;28;20043;-68
2023/08/15 12:21:23;;;;;;;5.00;1.30;;;;;;;;;;4986686;28;20115;-67
2023/08/15 12:23:49;;;;;;;5.05;1.50;;;;;;;;;;5011774;28;20029;-68
2023/08/15 12:26:15;;;;;;;5.18;1.45;;;;;;;;;;5010476;28;20440;-68
2023/08/15 12:28:41;;;;;;;5.88;1.50;;;;;;;;;;5012290;28;20029;-68
2023/08/15 12:31:08;;;;;;;5.45;1.40;;;;;;;;;;5005203;28;20112;-69
2023/08/15 12:33:35;;;;;;;7.68;1.85;;;;;;;;;;5010304;28;20581;-69
2023/08/15 12:36:02;;;;;;;5.00;1.73;;;;;;;;;;5008996;28;20373;-69
2023/08/15 12:38:28;;;;;;;5.97;1.42;;;;;;;;;;5009634;28;20074;-68
2023/08/15 12:40:55;;;;;;;4.85;1.30;;;;;;;;;;5011884;28;20801;-68
2023/08/15 12:43:21;;;;;;;5.75;1.50;;;;;;;;;;5007442;28;20033;-73
2023/08/15 12:45:47;;;;;;;4.68;1.27;;;;;;;;;;5012068;28;20040;-73
2023/08/15 12:48:13;;;;;;;5.40;1.80;;;;;;;;;;5008176;28;20037;-73
2023/08/15 12:50:40;;;;;;;4.43;1.50;;;;;;;;;;5010653;28;20328;-72
2023/08/15 12:53:08;;;;;;;11.23;7.45;;;;;;;;;;5012300;28;20509;-72
2023/08/15 12:55:34;;;;;;;7.70;3.40;;;;;;;;;;5008947;28;20037;-73
2023/08/15 12:58:02;;;;;;;9.02;3.63;;;;;;;;;;5009604;28;20824;-73
2023/08/15 13:00:29;;;;;;;7.60;1.50;;;;;;;;;;5008660;28;20045;-73
2023/08/15 13:02:55;;;;;;;6.40;1.63;;;;;;;;;;5006548;28;20068;-73
2023/08/15 13:05:22;;;;;;;5.15;1.52;;;;;;;;;;5008173;28;20753;-73
2023/08/15 13:07:48;;;;;;;4.50;1.40;;;;;;;;;;5004357;28;20546;-73
2023/08/15 13:10:14;;;;;;;6.90;1.95;;;;;;;;;;5004370;28;20034;-73
2023/08/15 13:12:40;;;;;;;16.60;11.75;;;;;;;;;;5007927;28;20072;-73
2023/08/15 13:15:06;;;;;;;9.90;4.13;;;;;;;;;;4985524;28;20028;-73
2023/08/15 13:17:32;;;;;;;8.35;3.08;;;;;;;;;;5005934;28;20037;-74
2023/08/15 13:19:59;;;;;;;10.48;5.53;;;;;;;;;;5009166;28;20530;-73
2023/08/15 13:22:25;;;;;;;62.15;50.10;;;;;;;;;;5008727;28;20021;-74
2023/08/15 13:24:51;;;;;;;50.28;40.70;;;;;;;;;;5008114;28;20108;-72
2023/08/15 13:27:17;;;;;;;12.68;8.63;;;;;;;;;;5005629;28;20037;-73
2023/08/15 13:29:43;;;;;;;18.38;10.68;;;;;;;;;;5010308;28;20037;-73
2023/08/15 13:32:09;;;;;;;6.88;2.58;;;;;;;;;;5006487;28;20037;-73
2023/08/15 13:34:35;;;;;;;7.90;2.58;;;;;;;;;;5010652;28;20042;-73
2023/08/15 13:37:02;;;;;;;7.70;3.10;;;;;;;;;;5009517;28;20029;-72
2023/08/15 13:39:28;;;;;;;8.15;2.80;;;;;;;;;;5011100;28;20030;-72
2023/08/15 13:41:54;;;;;;;6.53;2.00;;;;;;;;;;4992326;28;21075;-73
2023/08/15 13:44:21;;;;;;;6.30;2.08;;;;;;;;;;5007162;28;20029;-72
2023/08/15 13:46:47;;;;;;;6.22;1.65;;;;;;;;;;5010253;28;20080;-72
2023/08/15 13:49:13;;;;;;;6.90;1.65;;;;;;;;;;5005459;28;20033;-72
2023/08/15 13:51:39;;;;;;;6.68;1.77;;;;;;;;;;5011582;28;20029;-72
2023/08/15 13:54:06;;;;;;;7.32;1.67;;;;;;;;;;5007835;28;20029;-72
2023/08/15 13:56:32;;;;;;;5.22;1.30;;;;;;;;;;5009635;28;20463;-72
2023/08/15 13:58:59;;;;;;;8.45;1.80;;;;;;;;;;5015327;28;20032;-73
2023/08/15 14:01:25;;;;;;;5.05;1.75;;;;;;;;;;5016643;28;20438;-72
2023/08/15 14:03:51;;;;;;;5.45;1.55;;;;;;;;;;5010932;28;20454;-72
2023/08/15 14:06:17;;;;;;;6.47;1.60;;;;;;;;;;5005002;28;20025;-72
2023/08/15 14:08:44;;;;;;;6.22;1.65;;;;;;;;;;5010118;28;20445;-72
2023/08/15 14:11:10;;;;;;;7.50;1.80;;;;;;;;;;4991277;28;20021;-72
2023/08/15 14:13:36;;;;;;;5.38;1.60;;;;;;;;;;5012678;28;20515;-72
2023/08/15 14:16:02;;;;;;;5.03;1.60;;;;;;;;;;5008912;28;20372;-72
2023/08/15 14:18:29;;;;;;;6.10;1.85;;;;;;;;;;5011316;28;20634;-69
2023/08/15 14:20:55;;;;;;;5.03;1.50;;;;;;;;;;5014674;28;20036;-68
2023/08/15 14:23:21;;;;;;;5.43;1.58;;;;;;;;;;5007521;28;20147;-68
2023/08/15 14:25:47;;;;;;;5.05;1.50;;;;;;;;;;5011428;28;20033;-68
2023/08/15 14:28:13;;;;;;;5.80;1.60;;;;;;;;;;4989454;28;20046;-68
2023/08/15 14:30:40;;;;;;;6.40;1.52;;;;;;;;;;4995310;28;20400;-69
2023/08/15 14:33:06;;;;;;;6.75;1.90;;;;;;;;;;5006352;28;20032;-69
2023/08/15 14:35:32;;;;;;;9.10;1.85;;;;;;;;;;5012037;28;20060;-69
2023/08/15 14:37:59;;;;;;;8.57;1.80;;;;;;;;;;5010159;28;20040;-69
2023/08/15 14:40:25;;;;;;;5.55;1.63;;;;;;;;;;5012835;28;20457;-69